createdAt,value
2023-04-08T00:00:54.638Z,89.67
2023-04-08T00:01:54.659Z,89.77
2023-04-08T00:02:54.683Z,89.67
2023-04-08T00:03:54.737Z,89.67
2023-04-08T00:04:54.643Z,89.67
2023-04-08T00:05:54.586Z,89.67
2023-04-08T00:06:54.575Z,89.77
2023-04-08T00:07:54.566Z,89.77
2023-04-08T00:08:54.552Z,89.77
2023-04-08T00:09:54.581Z,89.87
2023-04-08T00:10:54.547Z,89.87
2023-04-08T00:11:54.509Z,89.77
2023-04-08T00:12:54.496Z,89.77
2023-04-08T00:13:54.492Z,89.77
2023-04-08T00:14:54.503Z,89.87
2023-04-08T00:15:54.469Z,89.87
2023-04-08T00:16:54.492Z,89.97
2023-04-08T00:17:54.501Z,90.08
2023-04-08T00:18:54.440Z,90.08
2023-04-08T00:19:54.443Z,90.08
2023-04-08T00:20:54.433Z,90.18
2023-04-08T00:21:54.398Z,90.28
2023-04-08T00:22:54.395Z,90.28
2023-04-08T00:23:54.383Z,90.39
2023-04-08T00:24:54.397Z,90.39
2023-04-08T00:25:54.363Z,90.39
2023-04-08T00:26:54.347Z,90.49
2023-04-08T00:27:54.355Z,90.49
2023-04-08T00:28:54.324Z,90.39
2023-04-08T00:29:54.334Z,90.39
2023-04-08T00:30:54.329Z,90.28
2023-04-08T00:31:54.300Z,90.28
2023-04-08T00:32:54.341Z,90.18
2023-04-08T00:33:54.276Z,90.18
2023-04-08T00:34:54.280Z,90.28
2023-04-08T00:35:54.279Z,90.18
2023-04-08T00:36:54.241Z,90.18
2023-04-08T00:37:54.255Z,90.39
2023-04-08T00:38:54.208Z,90.49
2023-04-08T00:39:54.218Z,90.49
2023-04-08T00:40:54.192Z,90.80
2023-04-08T00:41:54.190Z,90.80
2023-04-08T00:42:54.172Z,90.90
2023-04-08T00:43:54.165Z,90.90
2023-04-08T00:44:54.185Z,91.00
2023-04-08T00:45:54.146Z,91.21
2023-04-08T00:46:54.130Z,91.46
2023-04-08T00:47:54.134Z,91.56
2023-04-08T00:48:54.114Z,91.56
2023-04-08T00:49:54.107Z,91.66
2023-04-08T00:50:54.094Z,91.66
2023-04-08T00:51:54.063Z,91.77
2023-04-08T00:52:54.063Z,91.87
2023-04-08T00:53:54.049Z,91.97
2023-04-08T00:54:54.052Z,91.97
2023-04-08T00:55:54.055Z,91.97
2023-04-08T00:56:54.019Z,91.87
2023-04-08T00:57:54.018Z,91.87
2023-04-08T00:58:53.997Z,91.87
2023-04-08T00:59:54.001Z,91.62
2023-04-08T01:00:53.983Z,91.62
2023-04-08T01:01:54.069Z,91.62
2023-04-08T01:02:54.040Z,91.62
2023-04-08T01:03:54.021Z,91.62
2023-04-08T01:04:53.951Z,91.52
2023-04-08T01:05:53.916Z,91.52
2023-04-08T01:06:53.917Z,91.52
2023-04-08T01:07:53.901Z,91.52
2023-04-08T01:08:53.891Z,91.52
2023-04-08T01:09:53.892Z,91.42
2023-04-08T01:10:53.882Z,91.52
2023-04-08T01:11:53.888Z,91.52
2023-04-08T01:12:53.868Z,91.52
2023-04-08T01:13:53.853Z,91.62
2023-04-08T01:14:53.837Z,91.72
2023-04-08T01:15:53.863Z,91.62
2023-04-08T01:16:53.812Z,91.52
2023-04-08T01:17:53.805Z,91.52
2023-04-08T01:18:53.788Z,91.72
2023-04-08T01:19:53.794Z,92.03
2023-04-08T01:20:53.760Z,92.03
2023-04-08T01:21:53.751Z,92.03
2023-04-08T01:22:53.730Z,91.93
2023-04-08T01:23:53.744Z,91.93
2023-04-08T01:24:53.735Z,91.83
2023-04-08T01:25:53.707Z,91.72
2023-04-08T01:26:53.699Z,91.72
2023-04-08T01:27:53.681Z,91.72
2023-04-08T01:28:53.681Z,91.62
2023-04-08T01:29:53.680Z,91.62
2023-04-08T01:30:53.696Z,91.52
2023-04-08T01:31:53.645Z,91.42
2023-04-08T01:32:53.725Z,91.42
2023-04-08T01:33:53.635Z,91.38
2023-04-08T01:34:53.628Z,91.38
2023-04-08T01:35:53.672Z,91.47
2023-04-08T01:36:53.592Z,91.47
2023-04-08T01:37:53.573Z,91.62
2023-04-08T01:38:53.588Z,91.62
2023-04-08T01:39:53.569Z,91.72
2023-04-08T01:40:53.552Z,91.52
2023-04-08T01:41:53.534Z,91.72
2023-04-08T01:42:53.513Z,91.83
2023-04-08T01:43:53.510Z,91.93
2023-04-08T01:44:53.525Z,91.83
2023-04-08T01:45:53.491Z,91.83
2023-04-08T01:46:53.513Z,91.83
2023-04-08T01:47:53.591Z,91.83
2023-04-08T01:48:53.461Z,92.03
2023-04-08T01:49:53.479Z,92.03
2023-04-08T01:50:53.430Z,92.03
2023-04-08T01:51:53.430Z,92.03
2023-04-08T01:52:53.414Z,92.14
2023-04-08T01:53:53.402Z,92.24
2023-04-08T01:54:53.435Z,92.24
2023-04-08T01:55:53.393Z,92.34
2023-04-08T01:56:53.391Z,92.44
2023-04-08T01:57:53.372Z,92.44
2023-04-08T01:58:53.355Z,92.55
2023-04-08T01:59:53.363Z,92.55
2023-04-08T02:00:53.341Z,92.44
2023-04-08T02:01:53.477Z,92.44
2023-04-08T02:02:53.508Z,92.34
2023-04-08T02:03:53.394Z,92.34
2023-04-08T02:04:53.326Z,92.24
2023-04-08T02:05:53.285Z,92.34
2023-04-08T02:06:53.264Z,92.24
2023-04-08T02:07:53.263Z,92.14
2023-04-08T02:08:53.241Z,92.14
2023-04-08T02:09:53.261Z,92.14
2023-04-08T02:10:53.217Z,92.14
2023-04-08T02:11:53.238Z,92.03
2023-04-08T02:12:53.196Z,91.93
2023-04-08T02:13:53.181Z,91.93
2023-04-08T02:14:53.196Z,91.78
2023-04-08T02:15:53.219Z,91.78
2023-04-08T02:16:53.158Z,91.68
2023-04-08T02:17:53.189Z,91.58
2023-04-08T02:18:53.140Z,91.58
2023-04-08T02:19:53.130Z,91.47
2023-04-08T02:20:53.125Z,91.38
2023-04-08T02:21:53.112Z,91.38
2023-04-08T02:22:53.104Z,91.38
2023-04-08T02:23:53.073Z,91.38
2023-04-08T02:24:53.066Z,91.47
2023-04-08T02:25:53.074Z,91.27
2023-04-08T02:26:53.042Z,91.27
2023-04-08T02:27:53.043Z,91.38
2023-04-08T02:28:53.160Z,91.52
2023-04-08T02:29:53.013Z,91.93
2023-04-08T02:30:53.041Z,91.83
2023-04-08T02:31:53.058Z,91.93
2023-04-08T02:32:53.001Z,91.93
2023-04-08T02:33:53.023Z,91.93
2023-04-08T02:34:52.962Z,91.93
2023-04-08T02:35:53.082Z,91.93
2023-04-08T02:36:52.939Z,92.03
2023-04-08T02:37:52.946Z,92.24
2023-04-08T02:38:52.992Z,92.14
2023-04-08T02:39:52.913Z,92.03
2023-04-08T02:40:52.910Z,92.14
2023-04-08T02:41:52.882Z,92.03
2023-04-08T02:42:52.871Z,92.03
2023-04-08T02:43:52.856Z,92.03
2023-04-08T02:44:52.857Z,92.03
2023-04-08T02:45:52.912Z,91.93
2023-04-08T02:46:52.824Z,91.83
2023-04-08T02:47:52.819Z,91.83
2023-04-08T02:48:52.823Z,91.93
2023-04-08T02:49:52.788Z,92.03
2023-04-08T02:50:56.340Z,91.93
2023-04-08T02:51:52.770Z,92.14
2023-04-08T02:52:52.822Z,92.14
2023-04-08T02:53:52.746Z,92.24
2023-04-08T02:54:52.738Z,92.14
2023-04-08T02:55:52.752Z,92.14
2023-04-08T02:56:52.726Z,92.44
2023-04-08T02:57:52.706Z,92.34
2023-04-08T02:58:52.700Z,92.44
2023-04-08T02:59:52.685Z,92.69
2023-04-08T03:00:52.757Z,92.69
2023-04-08T03:01:52.725Z,92.69
2023-04-08T03:02:52.842Z,92.59
2023-04-08T03:03:52.734Z,92.59
2023-04-08T03:04:52.628Z,92.59
2023-04-08T03:05:52.627Z,92.44
2023-04-08T03:06:52.606Z,92.49
2023-04-08T03:07:52.590Z,92.59
2023-04-08T03:08:52.786Z,92.59
2023-04-08T03:09:52.570Z,92.69
2023-04-08T03:10:52.587Z,92.69
2023-04-08T03:11:52.573Z,92.90
2023-04-08T03:12:52.543Z,93.21
2023-04-08T03:13:52.533Z,93.11
2023-04-08T03:14:52.525Z,93.01
2023-04-08T03:15:52.541Z,93.01
2023-04-08T03:16:52.541Z,93.01
2023-04-08T03:17:52.577Z,92.90
2023-04-08T03:18:52.687Z,92.69
2023-04-08T03:19:52.463Z,92.69
2023-04-08T03:20:52.485Z,92.69
2023-04-08T03:21:52.446Z,92.59
2023-04-08T03:22:52.425Z,92.59
2023-04-08T03:23:52.419Z,92.80
2023-04-08T03:24:52.405Z,92.80
2023-04-08T03:25:52.419Z,92.80
2023-04-08T03:26:52.396Z,92.80
2023-04-08T03:27:52.382Z,92.80
2023-04-08T03:28:52.457Z,93.01
2023-04-08T03:29:52.355Z,93.01
2023-04-08T03:30:52.363Z,92.90
2023-04-08T03:31:52.365Z,93.01
2023-04-08T03:32:52.395Z,93.01
2023-04-08T03:33:52.313Z,92.90
2023-04-08T03:34:52.309Z,93.11
2023-04-08T03:35:52.325Z,93.01
2023-04-08T03:36:52.282Z,93.01
2023-04-08T03:37:52.265Z,93.01
2023-04-08T03:38:52.376Z,93.11
2023-04-08T03:39:52.248Z,93.01
2023-04-08T03:40:52.259Z,93.01
2023-04-08T03:41:52.243Z,93.01
2023-04-08T03:42:52.219Z,92.80
2023-04-08T03:43:52.214Z,92.80
2023-04-08T03:44:52.190Z,92.90
2023-04-08T03:45:52.210Z,92.94
2023-04-08T03:46:52.176Z,93.01
2023-04-08T03:47:52.201Z,92.94
2023-04-08T03:48:52.453Z,92.90
2023-04-08T03:49:52.138Z,92.80
2023-04-08T03:50:52.161Z,92.80
2023-04-08T03:51:52.122Z,92.69
2023-04-08T03:52:52.111Z,92.69
2023-04-08T03:53:52.100Z,92.69
2023-04-08T03:54:52.089Z,92.59
2023-04-08T03:55:52.163Z,92.59
2023-04-08T03:56:52.066Z,92.49
2023-04-08T03:57:52.054Z,92.49
2023-04-08T03:58:52.289Z,92.49
2023-04-08T03:59:52.035Z,92.69
2023-04-08T04:00:52.034Z,92.80
2023-04-08T04:01:52.018Z,92.90
2023-04-08T04:02:52.110Z,92.80
2023-04-08T04:03:52.192Z,92.90
2023-04-08T04:04:52.028Z,92.90
2023-04-08T04:05:51.985Z,92.90
2023-04-08T04:06:51.960Z,92.90
2023-04-08T04:07:51.946Z,92.90
2023-04-08T04:08:52.065Z,92.94
2023-04-08T04:09:51.915Z,93.25
2023-04-08T04:10:51.928Z,93.25
2023-04-08T04:11:51.896Z,93.25
2023-04-08T04:12:51.890Z,93.25
2023-04-08T04:13:51.874Z,93.25
2023-04-08T04:14:51.867Z,93.25
2023-04-08T04:15:51.932Z,93.25
2023-04-08T04:16:51.842Z,93.25
2023-04-08T04:17:51.853Z,93.15
2023-04-08T04:18:51.996Z,93.15
2023-04-08T04:19:51.810Z,93.25
2023-04-08T04:20:51.812Z,93.35
2023-04-08T04:21:51.785Z,93.35
2023-04-08T04:22:51.770Z,93.35
2023-04-08T04:23:51.768Z,93.46
2023-04-08T04:24:51.745Z,93.46
2023-04-08T04:25:51.767Z,93.46
2023-04-08T04:26:51.733Z,93.35
2023-04-08T04:27:51.717Z,93.35
2023-04-08T04:28:51.947Z,93.25
2023-04-08T04:29:51.699Z,93.25
2023-04-08T04:30:51.720Z,93.56
2023-04-08T04:31:51.680Z,93.66
2023-04-08T04:32:51.722Z,93.77
2023-04-08T04:33:51.674Z,93.77
2023-04-08T04:34:51.637Z,93.77
2023-04-08T04:35:51.713Z,93.77
2023-04-08T04:36:51.611Z,93.87
2023-04-08T04:37:51.616Z,93.98
2023-04-08T04:38:51.992Z,93.87
2023-04-08T04:39:51.588Z,93.98
2023-04-08T04:40:51.597Z,93.98
2023-04-08T04:41:51.571Z,93.98
2023-04-08T04:42:51.557Z,93.98
2023-04-08T04:43:51.556Z,93.98
2023-04-08T04:44:51.536Z,93.98
2023-04-08T04:45:51.541Z,93.87
2023-04-08T04:46:51.663Z,93.87
2023-04-08T04:47:51.535Z,93.87
2023-04-08T04:48:51.710Z,93.77
2023-04-08T04:49:51.488Z,93.87
2023-04-08T04:50:51.482Z,93.87
2023-04-08T04:51:51.458Z,93.77
2023-04-08T04:52:51.439Z,93.77
2023-04-08T04:53:51.454Z,93.87
2023-04-08T04:54:51.420Z,94.08
2023-04-08T04:55:51.428Z,94.28
2023-04-08T04:56:51.412Z,94.38
2023-04-08T04:57:51.392Z,94.38
2023-04-08T04:58:51.684Z,94.53
2023-04-08T04:59:51.362Z,94.64
2023-04-08T05:00:51.379Z,94.74
2023-04-08T05:01:51.411Z,94.95
2023-04-08T05:02:51.597Z,94.95
2023-04-08T05:03:51.329Z,95.05
2023-04-08T05:04:51.341Z,95.05
2023-04-08T05:05:51.327Z,95.05
2023-04-08T05:06:51.322Z,95.05
2023-04-08T05:07:51.302Z,95.05
2023-04-08T05:08:51.469Z,95.05
2023-04-08T05:09:51.271Z,95.05
2023-04-08T05:10:51.269Z,95.05
2023-04-08T05:11:51.242Z,95.25
2023-04-08T05:12:51.239Z,95.25
2023-04-08T05:13:51.220Z,95.25
2023-04-08T05:14:51.208Z,95.25
2023-04-08T05:15:51.279Z,95.25
2023-04-08T05:16:51.189Z,95.15
2023-04-08T05:17:51.244Z,95.25
2023-04-08T05:18:51.395Z,95.46
2023-04-08T05:19:51.160Z,95.56
2023-04-08T05:20:51.159Z,95.77
2023-04-08T05:21:51.134Z,95.87
2023-04-08T05:22:51.136Z,95.87
2023-04-08T05:23:51.126Z,95.77
2023-04-08T05:24:51.112Z,95.77
2023-04-08T05:25:51.137Z,95.67
2023-04-08T05:26:51.086Z,95.77
2023-04-08T05:27:51.082Z,95.87
2023-04-08T05:28:51.305Z,95.98
2023-04-08T05:29:51.053Z,95.98
2023-04-08T05:30:51.045Z,95.87
2023-04-08T05:31:51.102Z,95.77
2023-04-08T05:32:51.096Z,95.67
2023-04-08T05:33:51.004Z,95.62
2023-04-08T05:34:51.008Z,95.42
2023-04-08T05:35:51.016Z,95.42
2023-04-08T05:36:51.000Z,95.31
2023-04-08T05:37:50.963Z,95.31
2023-04-08T05:38:51.153Z,95.31
2023-04-08T05:39:50.940Z,95.31
2023-04-08T05:40:50.937Z,95.42
2023-04-08T05:41:50.935Z,95.52
2023-04-08T05:42:50.923Z,95.52
2023-04-08T05:43:50.897Z,95.31
2023-04-08T05:44:50.902Z,95.31
2023-04-08T05:45:50.889Z,95.31
2023-04-08T05:46:50.919Z,95.52
2023-04-08T05:47:50.869Z,95.31
2023-04-08T05:48:51.172Z,95.52
2023-04-08T05:49:51.290Z,95.56
2023-04-08T05:50:50.835Z,95.62
2023-04-08T05:51:50.833Z,95.62
2023-04-08T05:52:50.810Z,95.52
2023-04-08T05:53:50.799Z,95.62
2023-04-08T05:54:50.798Z,95.62
2023-04-08T05:55:50.768Z,95.52
2023-04-08T05:56:50.781Z,95.52
2023-04-08T05:57:50.746Z,95.52
2023-04-08T05:58:50.985Z,95.52
2023-04-08T05:59:50.723Z,95.52
2023-04-08T06:00:50.713Z,95.42
2023-04-08T06:01:50.736Z,95.42
2023-04-08T06:02:50.934Z,95.42
2023-04-08T06:03:50.963Z,95.52
2023-04-08T06:04:50.717Z,95.42
2023-04-08T06:05:50.654Z,95.42
2023-04-08T06:06:50.669Z,95.21
2023-04-08T06:07:50.631Z,95.21
2023-04-08T06:08:50.783Z,95.42
2023-04-08T06:09:50.609Z,95.31
2023-04-08T06:10:50.595Z,95.31
2023-04-08T06:11:50.607Z,95.21
2023-04-08T06:12:50.565Z,95.21
2023-04-08T06:13:50.555Z,95.21
2023-04-08T06:14:50.550Z,95.10
2023-04-08T06:15:50.544Z,95.10
2023-04-08T06:16:50.576Z,95.10
2023-04-08T06:17:50.582Z,95.10
2023-04-08T06:18:50.722Z,95.52
2023-04-08T06:19:50.500Z,95.52
2023-04-08T06:20:50.516Z,95.52
2023-04-08T06:21:50.491Z,95.62
2023-04-08T06:22:50.458Z,95.62
2023-04-08T06:23:50.527Z,95.73
2023-04-08T06:24:50.448Z,95.62
2023-04-08T06:25:50.434Z,95.62
2023-04-08T06:26:50.435Z,95.52
2023-04-08T06:27:50.418Z,95.37
2023-04-08T06:28:50.571Z,95.37
2023-04-08T06:29:50.387Z,95.27
2023-04-08T06:30:50.373Z,95.17
2023-04-08T06:31:50.439Z,95.06
2023-04-08T06:32:50.374Z,94.96
2023-04-08T06:33:50.450Z,94.85
2023-04-08T06:34:50.349Z,94.96
2023-04-08T06:35:50.365Z,94.96
2023-04-08T06:36:50.376Z,95.06
2023-04-08T06:37:50.300Z,95.06
2023-04-08T06:38:50.447Z,95.06
2023-04-08T06:39:50.294Z,95.06
2023-04-08T06:40:50.271Z,95.17
2023-04-08T06:41:50.275Z,95.10
2023-04-08T06:42:50.260Z,95.21
2023-04-08T06:43:50.242Z,95.21
2023-04-08T06:44:50.227Z,95.21
2023-04-08T06:45:50.244Z,95.42
2023-04-08T06:46:50.214Z,95.52
2023-04-08T06:47:50.240Z,95.42
2023-04-08T06:48:50.403Z,95.52
2023-04-08T06:49:50.178Z,95.62
2023-04-08T06:50:50.172Z,95.62
2023-04-08T06:51:50.169Z,95.62
2023-04-08T06:52:50.152Z,95.73
2023-04-08T06:53:50.133Z,95.73
2023-04-08T06:54:50.112Z,95.83
2023-04-08T06:55:50.111Z,95.73
2023-04-08T06:56:50.111Z,95.73
2023-04-08T06:57:50.097Z,95.73
2023-04-08T06:58:50.260Z,95.62
2023-04-08T06:59:50.062Z,95.73
2023-04-08T07:00:50.126Z,95.62
2023-04-08T07:01:50.191Z,95.62
2023-04-08T07:02:50.082Z,95.62
2023-04-08T07:03:50.062Z,95.62
2023-04-08T07:04:50.017Z,95.52
2023-04-08T07:05:50.014Z,95.42
2023-04-08T07:06:50.000Z,95.42
2023-04-08T07:07:49.977Z,95.42
2023-04-08T07:08:50.097Z,95.31
2023-04-08T07:09:49.959Z,95.42
2023-04-08T07:10:49.946Z,95.31
2023-04-08T07:11:49.948Z,95.42
2023-04-08T07:12:49.936Z,95.31
2023-04-08T07:13:49.916Z,95.42
2023-04-08T07:14:49.898Z,95.27
2023-04-08T07:15:49.897Z,95.27
2023-04-08T07:16:49.931Z,95.17
2023-04-08T07:17:49.897Z,95.17
2023-04-08T07:18:49.970Z,94.96
2023-04-08T07:19:49.851Z,94.96
2023-04-08T07:20:49.833Z,94.96
2023-04-08T07:21:49.837Z,94.96
2023-04-08T07:22:49.813Z,95.06
2023-04-08T07:23:49.798Z,95.06
2023-04-08T07:24:49.905Z,94.96
2023-04-08T07:25:49.791Z,95.17
2023-04-08T07:26:49.779Z,95.17
2023-04-08T07:27:49.773Z,95.06
2023-04-08T07:28:49.993Z,95.17
2023-04-08T07:29:49.748Z,95.17
2023-04-08T07:30:49.763Z,95.17
2023-04-08T07:31:49.731Z,95.06
2023-04-08T07:32:49.752Z,95.06
2023-04-08T07:33:49.692Z,95.06
2023-04-08T07:34:49.707Z,94.96
2023-04-08T07:35:50.707Z,94.96
2023-04-08T07:36:49.683Z,95.06
2023-04-08T07:37:49.644Z,95.17
2023-04-08T07:38:49.955Z,95.06
2023-04-08T07:39:49.624Z,95.27
2023-04-08T07:40:49.627Z,95.27
2023-04-08T07:41:49.640Z,95.06
2023-04-08T07:42:49.614Z,95.37
2023-04-08T07:43:49.580Z,95.58
2023-04-08T07:44:49.579Z,95.48
2023-04-08T07:45:49.641Z,95.43
2023-04-08T07:46:49.567Z,95.12
2023-04-08T07:47:49.546Z,95.12
2023-04-08T07:48:49.773Z,95.02
2023-04-08T07:49:49.510Z,94.92
2023-04-08T07:51:09.400Z,94.81
2023-04-08T07:51:49.526Z,94.71
2023-04-08T07:52:49.504Z,94.60
2023-04-08T07:53:49.471Z,94.51
2023-04-08T07:54:49.463Z,94.30
2023-04-08T07:55:49.456Z,94.40
2023-04-08T07:56:49.452Z,94.40
2023-04-08T07:57:49.428Z,94.51
2023-04-08T07:58:51.166Z,94.40
2023-04-08T07:59:49.403Z,94.51
2023-04-08T08:00:49.396Z,94.30
2023-04-08T08:01:49.445Z,94.60
2023-04-08T08:02:49.444Z,94.51
2023-04-08T08:03:49.632Z,94.46
2023-04-08T08:04:49.389Z,94.36
2023-04-08T08:05:49.344Z,94.26
2023-04-08T08:06:49.355Z,94.15
2023-04-08T08:07:49.335Z,93.84
2023-04-08T08:08:49.342Z,93.84
2023-04-08T08:09:49.322Z,93.64
2023-04-08T08:10:49.285Z,93.54
2023-04-08T08:11:49.317Z,93.33
2023-04-08T08:12:49.267Z,93.64
2023-04-08T08:13:49.485Z,93.64
2023-04-08T08:14:49.246Z,93.54
2023-04-08T08:15:49.248Z,93.64
2023-04-08T08:16:49.239Z,93.54
2023-04-08T08:17:49.270Z,93.84
2023-04-08T08:18:49.196Z,93.74
2023-04-08T08:19:49.193Z,93.95
2023-04-08T08:20:49.190Z,93.95
2023-04-08T08:21:49.205Z,93.74
2023-04-08T08:22:57.368Z,93.74
2023-04-08T08:23:49.407Z,93.74
2023-04-08T08:24:49.139Z,93.64
2023-04-08T08:25:49.137Z,93.64
2023-04-08T08:26:49.185Z,93.33
2023-04-08T08:27:49.133Z,93.23
2023-04-08T08:28:49.106Z,93.43
2023-04-08T08:29:49.117Z,93.43
2023-04-08T08:30:49.074Z,93.08
2023-04-08T08:31:49.104Z,93.43
2023-04-08T08:32:49.075Z,93.39
2023-04-08T08:33:49.250Z,93.18
2023-04-08T08:34:49.021Z,93.08
2023-04-08T08:35:49.034Z,92.77
2023-04-08T08:36:49.032Z,92.46
2023-04-08T08:37:49.016Z,92.36
2023-04-08T08:38:49.002Z,92.46
2023-04-08T08:39:48.987Z,92.46
2023-04-08T08:40:48.973Z,92.57
2023-04-08T08:41:48.975Z,92.57
2023-04-08T08:42:48.954Z,92.67
2023-04-08T08:43:49.302Z,92.67
2023-04-08T08:44:48.921Z,92.57
2023-04-08T08:45:48.937Z,92.46
2023-04-08T08:46:48.934Z,92.57
2023-04-08T08:47:51.022Z,92.46
2023-04-08T08:48:48.910Z,92.32
2023-04-08T08:49:48.871Z,92.21
2023-04-08T08:50:48.870Z,92.21
2023-04-08T08:51:48.857Z,92.21
2023-04-08T08:52:48.831Z,92.01
2023-04-08T08:53:48.830Z,92.01
2023-04-08T08:54:48.809Z,92.05
2023-04-08T08:56:47.803Z,92.16
2023-04-08T08:57:48.765Z,92.21
2023-04-08T08:58:48.762Z,92.01
2023-04-08T08:59:48.751Z,91.80
2023-04-08T09:00:48.773Z,91.80
2023-04-08T09:01:48.849Z,91.91
2023-04-08T09:02:48.921Z,91.91
2023-04-08T09:03:48.902Z,92.01
2023-04-08T09:04:48.867Z,92.11
2023-04-08T09:05:48.807Z,92.21
2023-04-08T09:06:48.704Z,92.11
2023-04-08T09:07:48.667Z,91.80
2023-04-08T09:08:48.647Z,91.66
2023-04-08T09:09:48.632Z,91.45
2023-04-08T09:10:48.636Z,91.14
2023-04-08T09:11:48.627Z,91.35
2023-04-08T09:12:48.604Z,91.14
2023-04-08T09:13:48.796Z,91.35
2023-04-08T09:14:48.597Z,91.25
2023-04-08T09:15:48.579Z,91.45
2023-04-08T09:16:48.727Z,91.45
2023-04-08T09:17:48.596Z,91.91
2023-04-08T09:18:48.550Z,92.11
2023-04-08T09:19:48.528Z,92.01
2023-04-08T09:20:48.535Z,92.32
2023-04-08T09:21:48.536Z,92.42
2023-04-08T09:22:48.501Z,92.52
2023-04-08T09:23:48.790Z,92.42
2023-04-08T09:24:48.551Z,92.21
2023-04-08T09:25:48.478Z,92.42
2023-04-08T09:26:48.476Z,92.42
2023-04-08T09:27:48.449Z,92.27
2023-04-08T09:28:48.466Z,92.27
2023-04-08T09:29:48.425Z,92.07
2023-04-08T09:30:48.413Z,92.07
2023-04-08T09:31:48.481Z,91.97
2023-04-08T09:32:48.444Z,91.66
2023-04-08T09:33:48.627Z,91.45
2023-04-08T09:34:48.369Z,91.66
2023-04-08T09:35:48.400Z,91.66
2023-04-08T09:36:48.375Z,91.51
2023-04-08T09:37:48.336Z,91.41
2023-04-08T09:38:48.327Z,91.20
2023-04-08T09:39:48.327Z,91.20
2023-04-08T09:40:48.306Z,91.20
2023-04-08T09:41:48.322Z,91.00
2023-04-08T09:42:48.285Z,91.31
2023-04-08T09:43:48.446Z,91.31
2023-04-08T09:44:48.279Z,91.20
2023-04-08T09:45:48.282Z,91.31
2023-04-08T09:46:48.252Z,91.10
2023-04-08T09:47:48.267Z,91.10
2023-04-08T09:48:48.238Z,91.10
2023-04-08T09:49:48.286Z,91.00
2023-04-08T09:50:48.202Z,91.20
2023-04-08T09:51:48.193Z,90.89
2023-04-08T09:52:48.209Z,90.80
2023-04-08T09:53:48.264Z,90.85
2023-04-08T09:54:48.168Z,90.44
2023-04-08T09:55:48.151Z,90.24
2023-04-08T09:56:48.121Z,90.34
2023-04-08T09:57:48.139Z,90.34
2023-04-08T09:58:48.113Z,90.14
2023-04-08T09:59:48.102Z,89.93
2023-04-08T10:00:48.248Z,90.03
2023-04-08T10:01:48.145Z,90.24
2023-04-08T10:02:48.207Z,90.14
2023-04-08T10:03:48.275Z,90.24
2023-04-08T10:04:48.058Z,90.24
2023-04-08T10:05:48.032Z,90.14
2023-04-08T10:06:48.012Z,90.24
2023-04-08T10:07:48.025Z,89.93
2023-04-08T10:08:47.999Z,89.89
2023-04-08T10:09:47.991Z,89.89
2023-04-08T10:10:48.176Z,89.48
2023-04-08T10:11:47.969Z,89.69
2023-04-08T10:12:48.048Z,89.54
2023-04-08T10:13:48.183Z,88.66
2023-04-08T10:14:47.977Z,88.56
2023-04-08T10:15:47.989Z,88.90
2023-04-08T10:16:48.032Z,89.31
2023-04-08T10:17:47.969Z,89.52
2023-04-08T10:18:47.890Z,89.52
2023-04-08T10:19:47.878Z,89.72
2023-04-08T10:20:47.895Z,89.93
2023-04-08T10:21:47.852Z,89.93
2023-04-08T10:22:47.876Z,89.83
2023-04-08T10:23:47.980Z,89.72
2023-04-08T10:24:47.825Z,89.48
2023-04-08T10:25:48.181Z,89.48
2023-04-08T10:26:47.806Z,89.37
2023-04-08T10:27:47.808Z,89.27
2023-04-08T10:28:47.783Z,89.27
2023-04-08T10:29:47.769Z,89.13
2023-04-08T10:30:47.774Z,88.92
2023-04-08T10:31:47.782Z,88.51
2023-04-08T10:32:47.802Z,88.56
2023-04-08T10:33:47.726Z,88.86
2023-04-08T10:34:47.713Z,88.76
2023-04-08T10:35:47.743Z,88.56
2023-04-08T10:36:47.755Z,88.66
2023-04-08T10:37:47.700Z,88.66
2023-04-08T10:38:47.669Z,88.51
2023-04-08T10:39:47.663Z,88.66
2023-04-08T10:40:47.649Z,88.62
2023-04-08T10:41:47.639Z,88.51
2023-04-08T10:42:47.640Z,88.62
2023-04-08T10:43:47.615Z,88.62
2023-04-08T10:44:47.616Z,88.62
2023-04-08T10:45:48.720Z,88.41
2023-04-08T10:46:47.603Z,88.21
2023-04-08T10:47:47.624Z,88.31
2023-04-08T10:48:47.558Z,88.51
2023-04-08T10:49:47.547Z,88.62
2023-04-08T10:50:47.574Z,88.45
2023-04-08T10:51:54.102Z,88.66
2023-04-08T10:52:47.549Z,88.66
2023-04-08T10:53:47.516Z,89.07
2023-04-08T10:54:47.495Z,89.17
2023-04-08T10:55:47.497Z,89.21
2023-04-08T10:56:47.494Z,89.21
2023-04-08T10:57:47.521Z,89.42
2023-04-08T10:58:47.473Z,89.62
2023-04-08T10:59:47.502Z,89.58
2023-04-08T11:00:47.485Z,89.48
2023-04-08T11:01:47.550Z,89.48
2023-04-08T11:02:47.634Z,89.27
2023-04-08T11:03:47.635Z,89.33
2023-04-08T11:04:47.450Z,89.13
2023-04-08T11:05:47.415Z,88.92
2023-04-08T11:06:47.474Z,89.13
2023-04-08T11:07:47.403Z,88.92
2023-04-08T11:08:47.441Z,88.82
2023-04-08T11:09:47.375Z,88.92
2023-04-08T11:10:47.371Z,89.03
2023-04-08T11:11:47.388Z,88.82
2023-04-08T11:12:47.435Z,88.82
2023-04-08T11:13:53.383Z,89.13
2023-04-08T11:14:48.505Z,89.03
2023-04-08T11:15:47.374Z,88.92
2023-04-08T11:16:47.290Z,89.13
2023-04-08T11:17:47.304Z,88.92
2023-04-08T11:18:47.259Z,89.33
2023-04-08T11:19:47.282Z,89.23
2023-04-08T11:20:47.237Z,89.33
2023-04-08T11:21:47.248Z,89.13
2023-04-08T11:22:47.252Z,88.72
2023-04-08T11:23:47.203Z,88.82
2023-04-08T11:24:47.193Z,88.72
2023-04-08T11:25:47.218Z,88.92
2023-04-08T11:26:47.179Z,89.03
2023-04-08T11:27:47.183Z,88.98
2023-04-08T11:28:47.163Z,88.78
2023-04-08T11:29:47.128Z,88.78
2023-04-08T11:30:47.232Z,88.68
2023-04-08T11:31:47.131Z,88.57
2023-04-08T11:32:47.170Z,88.27
2023-04-08T11:33:47.122Z,88.27
2023-04-08T11:34:47.098Z,88.12
2023-04-08T11:35:47.132Z,87.92
2023-04-08T11:36:47.074Z,87.82
2023-04-08T11:37:47.085Z,87.65
2023-04-08T11:38:47.062Z,87.65
2023-04-08T11:39:47.055Z,87.96
2023-04-08T11:40:47.058Z,88.06
2023-04-08T11:41:47.026Z,88.27
2023-04-08T11:42:47.238Z,88.31
2023-04-08T11:43:47.003Z,88.41
2023-04-08T11:44:46.995Z,88.51
2023-04-08T11:45:46.982Z,88.72
2023-04-08T11:46:47.023Z,88.41
2023-04-08T11:47:46.999Z,88.72
2023-04-08T11:48:46.917Z,88.82
2023-04-08T11:49:46.948Z,88.62
2023-04-08T11:50:46.949Z,88.72
2023-04-08T11:51:46.902Z,88.68
2023-04-08T11:52:46.927Z,88.47
2023-04-08T11:53:46.908Z,88.27
2023-04-08T11:54:46.872Z,88.31
2023-04-08T11:55:46.856Z,88.51
2023-04-08T11:56:46.991Z,88.72
2023-04-08T11:57:46.839Z,88.82
2023-04-08T11:58:46.834Z,88.96
2023-04-08T11:59:46.868Z,89.27
2023-04-08T12:00:46.826Z,89.58
2023-04-08T12:01:46.913Z,89.69
2023-04-08T12:02:46.848Z,89.64
2023-04-08T12:03:46.934Z,89.64
2023-04-08T12:04:46.817Z,89.54
2023-04-08T12:05:46.807Z,89.03
2023-04-08T12:06:46.774Z,88.82
2023-04-08T12:07:46.762Z,88.78
2023-04-08T12:08:46.745Z,88.68
2023-04-08T12:09:46.728Z,88.68
2023-04-08T12:10:46.726Z,88.64
2023-04-08T12:11:46.751Z,88.33
2023-04-08T12:12:46.745Z,88.12
2023-04-08T12:13:46.674Z,88.23
2023-04-08T12:14:46.687Z,87.71
2023-04-08T12:15:46.734Z,88.02
2023-04-08T12:16:46.642Z,88.02
2023-04-08T12:17:46.752Z,88.23
2023-04-08T12:18:46.636Z,88.33
2023-04-08T12:19:46.616Z,88.17
2023-04-08T12:20:46.644Z,88.47
2023-04-08T12:21:46.735Z,88.57
2023-04-08T12:22:46.612Z,88.47
2023-04-08T12:23:46.556Z,88.37
2023-04-08T12:24:46.551Z,88.37
2023-04-08T12:25:46.545Z,88.37
2023-04-08T12:26:46.539Z,88.57
2023-04-08T12:27:46.595Z,88.78
2023-04-08T12:28:46.528Z,88.98
2023-04-08T12:29:46.486Z,88.98
2023-04-08T12:30:46.511Z,88.98
2023-04-08T12:31:46.503Z,88.88
2023-04-08T12:32:46.581Z,89.03
2023-04-08T12:33:46.457Z,89.03
2023-04-08T12:34:46.458Z,88.98
2023-04-08T12:35:46.463Z,89.09
2023-04-08T12:36:46.417Z,89.13
2023-04-08T12:37:46.462Z,89.13
2023-04-08T12:38:46.413Z,89.13
2023-04-08T12:39:46.402Z,88.88
2023-04-08T12:40:47.678Z,89.09
2023-04-08T12:41:46.400Z,88.98
2023-04-08T12:42:46.386Z,88.78
2023-04-08T12:43:46.388Z,88.37
2023-04-08T12:44:46.362Z,88.27
2023-04-08T12:45:46.324Z,88.37
2023-04-08T12:46:46.384Z,88.37
2023-04-08T12:47:46.361Z,88.47
2023-04-08T12:48:47.587Z,88.33
2023-04-08T12:49:49.898Z,88.37
2023-04-08T12:50:46.302Z,88.47
2023-04-08T12:51:46.316Z,88.47
2023-04-08T12:52:46.293Z,88.68
2023-04-08T12:53:46.265Z,88.37